sensor_id;sensor_type;location;lat;lon;timestamp;pressure;altitude;pressure_sealevel;temperature;humidity
73748;BME280;62056;52.130;5.428;2022-09-03T00:01:37;101377.00;;;19.46;39.43
73748;BME280;62056;52.130;5.428;2022-09-03T00:04:13;101377.19;;;19.41;38.99
73748;BME280;62056;52.130;5.428;2022-09-03T00:06:59;101365.84;;;19.35;39.55
73748;BME280;62056;52.130;5.428;2022-09-03T00:09:31;101369.19;;;19.32;39.49
73748;BME280;62056;52.130;5.428;2022-09-03T00:12:07;101369.06;;;19.29;39.43
73748;BME280;62056;52.130;5.428;2022-09-03T00:14:39;101367.50;;;19.28;39.44
73748;BME280;62056;52.130;5.428;2022-09-03T00:17:16;101362.75;;;19.25;39.95
73748;BME280;62056;52.130;5.428;2022-09-03T00:19:53;101366.13;;;19.21;39.90
73748;BME280;62056;52.130;5.428;2022-09-03T00:22:27;101372.97;;;19.19;39.83
73748;BME280;62056;52.130;5.428;2022-09-03T00:24:57;101369.81;;;19.17;39.47
73748;BME280;62056;52.130;5.428;2022-09-03T00:27:27;101367.00;;;19.13;39.40
73748;BME280;62056;52.130;5.428;2022-09-03T00:30:07;101364.47;;;19.08;40.50
73748;BME280;62056;52.130;5.428;2022-09-03T00:32:40;101366.25;;;19.04;39.75
73748;BME280;62056;52.130;5.428;2022-09-03T00:35:31;101365.03;;;19.01;39.94
73748;BME280;62056;52.130;5.428;2022-09-03T00:37:59;101361.09;;;18.99;39.63
73748;BME280;62056;52.130;5.428;2022-09-03T00:40:55;101360.16;;;18.95;40.51
73748;BME280;62056;52.130;5.428;2022-09-03T00:43:53;101359.72;;;18.93;39.90
73748;BME280;62056;52.130;5.428;2022-09-03T00:47:01;101363.88;;;18.90;40.96
73748;BME280;62056;52.130;5.428;2022-09-03T00:50:02;101352.94;;;18.87;40.96
73748;BME280;62056;52.130;5.428;2022-09-03T00:52:46;101358.56;;;18.82;40.30
73748;BME280;62056;52.130;5.428;2022-09-03T01:00:38;101353.97;;;18.73;40.17
73748;BME280;62056;52.130;5.428;2022-09-03T01:03:11;101359.22;;;18.70;40.51
73748;BME280;62056;52.130;5.428;2022-09-03T01:06:17;101351.00;;;18.66;41.15
73748;BME280;62056;52.130;5.428;2022-09-03T01:08:53;101353.59;;;18.63;40.92
73748;BME280;62056;52.130;5.428;2022-09-03T01:14:25;101357.25;;;18.58;41.10
73748;BME280;62056;52.130;5.428;2022-09-03T01:20:14;101352.06;;;18.53;41.52
73748;BME280;62056;52.130;5.428;2022-09-03T01:23:07;101368.53;;;18.51;42.00
73748;BME280;62056;52.130;5.428;2022-09-03T01:25:51;101361.59;;;18.50;41.68
73748;BME280;62056;52.130;5.428;2022-09-03T01:31:15;101371.75;;;18.45;41.36
73748;BME280;62056;52.130;5.428;2022-09-03T01:34:00;101367.38;;;18.40;42.31
73748;BME280;62056;52.130;5.428;2022-09-03T01:36:41;101371.50;;;18.37;41.50
73748;BME280;62056;52.130;5.428;2022-09-03T01:39:22;101372.91;;;18.35;41.73
73748;BME280;62056;52.130;5.428;2022-09-03T01:45:15;101369.97;;;18.28;42.07
73748;BME280;62056;52.130;5.428;2022-09-03T01:48:04;101363.66;;;18.24;43.04
73748;BME280;62056;52.130;5.428;2022-09-03T01:50:57;101371.25;;;18.22;42.69
73748;BME280;62056;52.130;5.428;2022-09-03T01:53:51;101369.19;;;18.18;42.85
73748;BME280;62056;52.130;5.428;2022-09-03T01:56:49;101369.56;;;18.17;41.94
73748;BME280;62056;52.130;5.428;2022-09-03T01:59:36;101370.19;;;18.14;43.01
73748;BME280;62056;52.130;5.428;2022-09-03T02:02:14;101368.94;;;18.11;42.78
73748;BME280;62056;52.130;5.428;2022-09-03T02:05:06;101370.84;;;18.11;42.58
73748;BME280;62056;52.130;5.428;2022-09-03T02:07:41;101369.72;;;18.12;41.79
73748;BME280;62056;52.130;5.428;2022-09-03T02:10:14;101363.09;;;18.09;42.64
73748;BME280;62056;52.130;5.428;2022-09-03T02:12:46;101362.31;;;18.09;42.08
73748;BME280;62056;52.130;5.428;2022-09-03T02:15:17;101370.22;;;18.05;42.15
73748;BME280;62056;52.130;5.428;2022-09-03T02:17:47;101375.94;;;18.04;42.39
73748;BME280;62056;52.130;5.428;2022-09-03T02:20:19;101366.28;;;18.03;42.39
73748;BME280;62056;52.130;5.428;2022-09-03T02:22:48;101367.72;;;18.00;42.34
73748;BME280;62056;52.130;5.428;2022-09-03T02:25:16;101363.75;;;17.97;42.64
73748;BME280;62056;52.130;5.428;2022-09-03T02:27:44;101362.06;;;17.93;42.36
73748;BME280;62056;52.130;5.428;2022-09-03T02:30:11;101367.28;;;17.89;42.41
73748;BME280;62056;52.130;5.428;2022-09-03T02:32:38;101367.63;;;17.88;42.90
73748;BME280;62056;52.130;5.428;2022-09-03T02:35:05;101367.78;;;17.83;42.85
73748;BME280;62056;52.130;5.428;2022-09-03T02:37:32;101363.03;;;17.79;42.94
73748;BME280;62056;52.130;5.428;2022-09-03T02:39:58;101365.56;;;17.76;42.90
73748;BME280;62056;52.130;5.428;2022-09-03T02:42:25;101362.41;;;17.74;42.84
73748;BME280;62056;52.130;5.428;2022-09-03T02:44:56;101373.34;;;17.69;44.18
73748;BME280;62056;52.130;5.428;2022-09-03T02:47:30;101365.91;;;17.66;43.65
73748;BME280;62056;52.130;5.428;2022-09-03T02:49:58;101369.25;;;17.63;43.37
73748;BME280;62056;52.130;5.428;2022-09-03T02:52:25;101356.13;;;17.61;43.15
73748;BME280;62056;52.130;5.428;2022-09-03T02:54:51;101364.03;;;17.57;43.45
73748;BME280;62056;52.130;5.428;2022-09-03T02:57:18;101360.41;;;17.53;43.40
73748;BME280;62056;52.130;5.428;2022-09-03T02:59:52;101359.63;;;17.53;43.46
73748;BME280;62056;52.130;5.428;2022-09-03T03:02:19;101361.06;;;17.50;43.45
73748;BME280;62056;52.130;5.428;2022-09-03T03:04:46;101357.44;;;17.46;43.84
73748;BME280;62056;52.130;5.428;2022-09-03T03:07:15;101349.69;;;17.45;43.51
73748;BME280;62056;52.130;5.428;2022-09-03T03:09:41;101349.22;;;17.43;43.54
73748;BME280;62056;52.130;5.428;2022-09-03T03:12:08;101353.81;;;17.42;44.02
73748;BME280;62056;52.130;5.428;2022-09-03T03:14:35;101360.94;;;17.38;43.85
73748;BME280;62056;52.130;5.428;2022-09-03T03:17:02;101360.47;;;17.36;43.66
73748;BME280;62056;52.130;5.428;2022-09-03T03:19:28;101354.31;;;17.35;43.96
73748;BME280;62056;52.130;5.428;2022-09-03T03:21:55;101347.34;;;17.34;44.07
73748;BME280;62056;52.130;5.428;2022-09-03T03:24:22;101346.06;;;17.32;43.89
73748;BME280;62056;52.130;5.428;2022-09-03T03:26:48;101343.22;;;17.28;43.89
73748;BME280;62056;52.130;5.428;2022-09-03T03:29:16;101343.88;;;17.25;43.79
73748;BME280;62056;52.130;5.428;2022-09-03T03:31:43;101344.19;;;17.24;43.69
73748;BME280;62056;52.130;5.428;2022-09-03T03:34:10;101335.34;;;17.23;43.87
73748;BME280;62056;52.130;5.428;2022-09-03T03:36:36;101339.13;;;17.22;44.40
73748;BME280;62056;52.130;5.428;2022-09-03T03:39:03;101335.50;;;17.18;44.24
73748;BME280;62056;52.130;5.428;2022-09-03T03:41:32;101338.84;;;17.15;44.60
73748;BME280;62056;52.130;5.428;2022-09-03T03:44:02;101346.44;;;17.13;44.98
73748;BME280;62056;52.130;5.428;2022-09-03T03:46:35;101336.94;;;17.07;45.17
73748;BME280;62056;52.130;5.428;2022-09-03T03:49:03;101341.84;;;17.05;44.60
73748;BME280;62056;52.130;5.428;2022-09-03T03:51:32;101342.16;;;17.03;44.36
73748;BME280;62056;52.130;5.428;2022-09-03T03:54:02;101342.16;;;17.03;44.62
73748;BME280;62056;52.130;5.428;2022-09-03T03:56:32;101355.91;;;17.02;44.63
73748;BME280;62056;52.130;5.428;2022-09-03T03:58:59;101354.03;;;17.02;44.91
73748;BME280;62056;52.130;5.428;2022-09-03T04:01:27;101354.34;;;17.01;44.46
73748;BME280;62056;52.130;5.428;2022-09-03T04:03:54;101358.13;;;16.99;44.56
73748;BME280;62056;52.130;5.428;2022-09-03T04:06:22;101348.19;;;17.00;45.06
73748;BME280;62056;52.130;5.428;2022-09-03T04:08:49;101350.69;;;16.96;45.14
73748;BME280;62056;52.130;5.428;2022-09-03T04:11:18;101349.09;;;16.95;45.13
73748;BME280;62056;52.130;5.428;2022-09-03T04:13:46;101355.59;;;16.94;44.92
73748;BME280;62056;52.130;5.428;2022-09-03T04:16:15;101344.38;;;16.92;45.18
73748;BME280;62056;52.130;5.428;2022-09-03T04:18:44;101352.75;;;16.91;45.21
73748;BME280;62056;52.130;5.428;2022-09-03T04:21:13;101347.22;;;16.87;45.54
73748;BME280;62056;52.130;5.428;2022-09-03T04:23:42;101348.94;;;16.83;45.57
73748;BME280;62056;52.130;5.428;2022-09-03T04:26:10;101340.41;;;16.81;45.56
73748;BME280;62056;52.130;5.428;2022-09-03T04:28:37;101341.81;;;16.78;45.34
73748;BME280;62056;52.130;5.428;2022-09-03T04:31:07;101341.50;;;16.80;45.69
73748;BME280;62056;52.130;5.428;2022-09-03T04:33:34;101339.13;;;16.78;45.41
73748;BME280;62056;52.130;5.428;2022-09-03T04:36:04;101344.03;;;16.76;46.33
73748;BME280;62056;52.130;5.428;2022-09-03T04:38:33;101341.97;;;16.73;45.76
73748;BME280;62056;52.130;5.428;2022-09-03T04:41:00;101338.81;;;16.71;45.96
73748;BME280;62056;52.130;5.428;2022-09-03T04:43:27;101331.84;;;16.70;45.93
73748;BME280;62056;52.130;5.428;2022-09-03T04:46:02;101329.50;;;16.69;46.40
73748;BME280;62056;52.130;5.428;2022-09-03T04:48:31;101333.28;;;16.68;45.87
73748;BME280;62056;52.130;5.428;2022-09-03T04:51:10;101340.25;;;16.69;46.26
73748;BME280;62056;52.130;5.428;2022-09-03T04:53:40;101342.94;;;16.69;46.31
73748;BME280;62056;52.130;5.428;2022-09-03T04:56:18;101338.66;;;16.68;46.77
73748;BME280;62056;52.130;5.428;2022-09-03T04:58:45;101338.97;;;16.66;45.82
73748;BME280;62056;52.130;5.428;2022-09-03T05:01:20;101341.66;;;16.66;46.09
73748;BME280;62056;52.130;5.428;2022-09-03T05:03:47;101346.22;;;16.66;46.31
73748;BME280;62056;52.130;5.428;2022-09-03T05:06:14;101341.97;;;16.65;46.35
73748;BME280;62056;52.130;5.428;2022-09-03T05:08:46;101344.66;;;16.65;46.10
73748;BME280;62056;52.130;5.428;2022-09-03T05:11:16;101348.44;;;16.64;46.12
73748;BME280;62056;52.130;5.428;2022-09-03T05:13:46;101355.72;;;16.63;46.39
73748;BME280;62056;52.130;5.428;2022-09-03T05:16:15;101357.28;;;16.64;46.67
73748;BME280;62056;52.130;5.428;2022-09-03T05:18:42;101358.41;;;16.63;46.57
73748;BME280;62056;52.130;5.428;2022-09-03T05:21:12;101357.63;;;16.63;46.53
73748;BME280;62056;52.130;5.428;2022-09-03T05:23:45;101351.44;;;16.62;46.83
73748;BME280;62056;52.130;5.428;2022-09-03T05:26:22;101340.69;;;16.62;46.52
73748;BME280;62056;52.130;5.428;2022-09-03T05:28:53;101347.66;;;16.63;46.68
73748;BME280;62056;52.130;5.428;2022-09-03T05:31:22;101347.34;;;16.65;46.65
73748;BME280;62056;52.130;5.428;2022-09-03T05:33:55;101344.97;;;16.63;46.90
73748;BME280;62056;52.130;5.428;2022-09-03T05:36:26;101344.66;;;16.65;46.83
73748;BME280;62056;52.130;5.428;2022-09-03T05:38:53;101339.59;;;16.63;47.10
73748;BME280;62056;52.130;5.428;2022-09-03T05:41:21;101341.16;;;16.64;46.44
73748;BME280;62056;52.130;5.428;2022-09-03T05:43:51;101341.97;;;16.65;46.97
73748;BME280;62056;52.130;5.428;2022-09-03T05:46:23;101340.06;;;16.65;46.85
73748;BME280;62056;52.130;5.428;2022-09-03T05:48:55;101333.59;;;16.66;47.04
73748;BME280;62056;52.130;5.428;2022-09-03T05:51:22;101340.88;;;16.66;47.24
73748;BME280;62056;52.130;5.428;2022-09-03T05:53:48;101343.25;;;16.67;47.13
73748;BME280;62056;52.130;5.428;2022-09-03T05:56:18;101340.72;;;16.71;47.37
73748;BME280;62056;52.130;5.428;2022-09-03T05:58:46;101341.34;;;16.76;47.61
73748;BME280;62056;52.130;5.428;2022-09-03T06:01:23;101343.56;;;16.83;47.76
73748;BME280;62056;52.130;5.428;2022-09-03T06:03:58;101351.66;;;16.92;47.98
73748;BME280;62056;52.130;5.428;2022-09-03T06:06:26;101351.97;;;16.99;48.37
73748;BME280;62056;52.130;5.428;2022-09-03T06:08:55;101350.84;;;17.09;48.26
73748;BME280;62056;52.130;5.428;2022-09-03T06:11:24;101361.59;;;17.17;48.21
73748;BME280;62056;52.130;5.428;2022-09-03T06:13:54;101353.19;;;17.28;48.52
73748;BME280;62056;52.130;5.428;2022-09-03T06:16:22;101349.41;;;17.37;48.62
73748;BME280;62056;52.130;5.428;2022-09-03T06:18:59;101347.16;;;17.48;48.46
73748;BME280;62056;52.130;5.428;2022-09-03T06:21:26;101349.81;;;17.57;48.26
73748;BME280;62056;52.130;5.428;2022-09-03T06:23:54;101349.63;;;17.62;48.40
73748;BME280;62056;52.130;5.428;2022-09-03T06:26:26;101348.03;;;17.70;48.07
73748;BME280;62056;52.130;5.428;2022-09-03T06:28:55;101349.44;;;17.76;48.30
73748;BME280;62056;52.130;5.428;2022-09-03T06:31:23;101347.84;;;17.84;48.21
73748;BME280;62056;52.130;5.428;2022-09-03T06:33:50;101340.06;;;17.91;48.39
73748;BME280;62056;52.130;5.428;2022-09-03T06:36:19;101334.50;;;17.96;47.97
73748;BME280;62056;52.130;5.428;2022-09-03T06:38:46;101330.06;;;18.00;47.81
73748;BME280;62056;52.130;5.428;2022-09-03T06:41:16;101337.16;;;18.05;47.89
73748;BME280;62056;52.130;5.428;2022-09-03T06:43:47;101342.03;;;18.11;47.88
73748;BME280;62056;52.130;5.428;2022-09-03T06:46:18;101339.47;;;18.15;47.87
73748;BME280;62056;52.130;5.428;2022-09-03T06:48:45;101338.97;;;18.22;47.63
73748;BME280;62056;52.130;5.428;2022-09-03T06:51:17;101346.97;;;18.30;47.69
73748;BME280;62056;52.130;5.428;2022-09-03T06:53:49;101343.44;;;18.38;47.24
73748;BME280;62056;52.130;5.428;2022-09-03T06:56:21;101345.44;;;18.50;47.06
73748;BME280;62056;52.130;5.428;2022-09-03T06:58:56;101356.16;;;18.59;47.29
73748;BME280;62056;52.130;5.428;2022-09-03T07:01:25;101354.22;;;18.59;47.06
73748;BME280;62056;52.130;5.428;2022-09-03T07:03:54;101356.59;;;18.61;47.24
73748;BME280;62056;52.130;5.428;2022-09-03T07:06:24;101349.31;;;18.61;47.02
73748;BME280;62056;52.130;5.428;2022-09-03T07:08:53;101351.69;;;18.63;47.11
73748;BME280;62056;52.130;5.428;2022-09-03T07:11:23;101345.50;;;18.63;46.98
73748;BME280;62056;52.130;5.428;2022-09-03T07:13:52;101358.31;;;18.66;47.13
73748;BME280;62056;52.130;5.428;2022-09-03T07:16:21;101355.75;;;18.69;47.09
73748;BME280;62056;52.130;5.428;2022-09-03T07:18:49;101352.84;;;18.74;47.06
73748;BME280;62056;52.130;5.428;2022-09-03T07:21:18;101352.22;;;18.77;47.16
73748;BME280;62056;52.130;5.428;2022-09-03T07:23:48;101350.47;;;18.82;47.13
73748;BME280;62056;52.130;5.428;2022-09-03T07:26:18;101350.25;;;18.87;47.14
73748;BME280;62056;52.130;5.428;2022-09-03T07:28:45;101352.75;;;18.92;47.18
73748;BME280;62056;52.130;5.428;2022-09-03T07:31:18;101348.75;;;18.98;47.08
73748;BME280;62056;52.130;5.428;2022-09-03T07:33:48;101353.59;;;19.05;46.92
73748;BME280;62056;52.130;5.428;2022-09-03T07:36:15;101343.38;;;19.10;46.73
73748;BME280;62056;52.130;5.428;2022-09-03T07:38:44;101342.06;;;19.16;46.92
73748;BME280;62056;52.130;5.428;2022-09-03T07:41:12;101348.81;;;19.23;46.77
73748;BME280;62056;52.130;5.428;2022-09-03T07:43:53;101352.88;;;19.29;46.70
73748;BME280;62056;52.130;5.428;2022-09-03T07:46:22;101354.25;;;19.35;46.78
73748;BME280;62056;52.130;5.428;2022-09-03T07:48:54;101357.19;;;19.42;46.63
73748;BME280;62056;52.130;5.428;2022-09-03T07:51:26;101348.56;;;19.49;46.52
73748;BME280;62056;52.130;5.428;2022-09-03T07:53:55;101351.16;;;19.57;46.56
73748;BME280;62056;52.130;5.428;2022-09-03T07:56:24;101349.81;;;19.64;46.50
73748;BME280;62056;52.130;5.428;2022-09-03T07:58:52;101348.47;;;19.70;46.26
73748;BME280;62056;52.130;5.428;2022-09-03T08:01:23;101353.34;;;19.76;45.68
73748;BME280;62056;52.130;5.428;2022-09-03T08:03:51;101353.47;;;19.80;44.86
73748;BME280;62056;52.130;5.428;2022-09-03T08:06:23;101354.69;;;19.83;45.42
73748;BME280;62056;52.130;5.428;2022-09-03T08:08:54;101352.91;;;19.87;45.25
73748;BME280;62056;52.130;5.428;2022-09-03T08:11:29;101342.69;;;19.92;45.67
73748;BME280;62056;52.130;5.428;2022-09-03T08:14:00;101353.22;;;19.97;45.17
73748;BME280;62056;52.130;5.428;2022-09-03T08:16:29;101355.72;;;20.02;44.96
73748;BME280;62056;52.130;5.428;2022-09-03T08:18:57;101356.63;;;20.07;44.97
73748;BME280;62056;52.130;5.428;2022-09-03T08:21:24;101348.63;;;20.10;44.78
73748;BME280;62056;52.130;5.428;2022-09-03T08:23:54;101354.59;;;20.16;44.73
73748;BME280;62056;52.130;5.428;2022-09-03T08:26:29;101354.38;;;20.21;44.86
73748;BME280;62056;52.130;5.428;2022-09-03T08:28:57;101351.09;;;20.28;45.05
73748;BME280;62056;52.130;5.428;2022-09-03T08:31:25;101347.50;;;20.36;44.80
73748;BME280;62056;52.130;5.428;2022-09-03T08:33:55;101348.81;;;20.42;44.10
73748;BME280;62056;52.130;5.428;2022-09-03T08:36:26;101358.72;;;20.50;43.98
73748;BME280;62056;52.130;5.428;2022-09-03T08:38:56;101358.13;;;20.57;43.97
73748;BME280;62056;52.130;5.428;2022-09-03T08:44:28;101349.22;;;20.69;42.84
73748;BME280;62056;52.130;5.428;2022-09-03T08:47:01;101350.56;;;20.75;43.79
73748;BME280;62056;52.130;5.428;2022-09-03T08:52:19;101352.97;;;20.92;42.17
73748;BME280;62056;52.130;5.428;2022-09-03T08:54:48;101359.38;;;21.00;43.08
73748;BME280;62056;52.130;5.428;2022-09-03T08:57:19;101352.94;;;21.05;42.43
73748;BME280;62056;52.130;5.428;2022-09-03T08:59:50;101351.19;;;21.12;41.43
73748;BME280;62056;52.130;5.428;2022-09-03T09:02:33;101354.88;;;21.20;42.17
73748;BME280;62056;52.130;5.428;2022-09-03T09:05:09;101351.22;;;21.28;42.96
73748;BME280;62056;52.130;5.428;2022-09-03T09:07:52;101354.13;;;21.35;42.08
73748;BME280;62056;52.130;5.428;2022-09-03T09:10:46;101350.50;;;21.43;41.94
73748;BME280;62056;52.130;5.428;2022-09-03T09:16:06;101356.25;;;21.58;41.50
73748;BME280;62056;52.130;5.428;2022-09-03T09:21:20;101349.22;;;21.69;41.45
73748;BME280;62056;52.130;5.428;2022-09-03T09:23:53;101353.66;;;21.77;42.03
73748;BME280;62056;52.130;5.428;2022-09-03T09:26:22;101348.75;;;21.83;41.75
73748;BME280;62056;52.130;5.428;2022-09-03T09:28:55;101340.38;;;21.88;39.41
73748;BME280;62056;52.130;5.428;2022-09-03T09:31:23;101347.09;;;21.94;40.76
73748;BME280;62056;52.130;5.428;2022-09-03T09:33:50;101347.97;;;21.98;41.41
73748;BME280;62056;52.130;5.428;2022-09-03T09:36:17;101343.47;;;22.06;41.41
73748;BME280;62056;52.130;5.428;2022-09-03T09:38:45;101355.34;;;22.17;41.33
73748;BME280;62056;52.130;5.428;2022-09-03T09:41:15;101343.94;;;22.24;41.03
73748;BME280;62056;52.130;5.428;2022-09-03T09:43:44;101354.94;;;22.31;40.33
73748;BME280;62056;52.130;5.428;2022-09-03T09:46:19;101347.28;;;22.37;40.59
73748;BME280;62056;52.130;5.428;2022-09-03T09:48:50;101342.38;;;22.42;39.72
73748;BME280;62056;52.130;5.428;2022-09-03T09:51:25;101338.25;;;22.49;40.22
73748;BME280;62056;52.130;5.428;2022-09-03T09:54:14;101344.63;;;22.56;39.38
73748;BME280;62056;52.130;5.428;2022-09-03T09:56:58;101349.44;;;22.67;39.86
73748;BME280;62056;52.130;5.428;2022-09-03T09:59:29;101343.41;;;22.73;40.19
73748;BME280;62056;52.130;5.428;2022-09-03T10:02:08;101341.59;;;22.81;39.46
73748;BME280;62056;52.130;5.428;2022-09-03T10:04:39;101340.19;;;22.87;39.96
73748;BME280;62056;52.130;5.428;2022-09-03T10:07:28;101333.75;;;22.95;39.22
73748;BME280;62056;52.130;5.428;2022-09-03T10:09:59;101329.63;;;23.01;38.90
73748;BME280;62056;52.130;5.428;2022-09-03T10:12:37;101332.06;;;23.07;39.29
73748;BME280;62056;52.130;5.428;2022-09-03T10:15:17;101328.34;;;23.15;39.16
73748;BME280;62056;52.130;5.428;2022-09-03T10:17:56;101322.63;;;23.20;37.78
73748;BME280;62056;52.130;5.428;2022-09-03T10:20:53;101329.72;;;23.28;39.07
73748;BME280;62056;52.130;5.428;2022-09-03T10:23:26;101319.38;;;23.34;39.32
73748;BME280;62056;52.130;5.428;2022-09-03T10:26:02;101319.84;;;23.39;38.87
73748;BME280;62056;52.130;5.428;2022-09-03T10:28:35;101318.81;;;23.48;38.95
73748;BME280;62056;52.130;5.428;2022-09-03T10:36:32;101321.09;;;23.69;38.86
73748;BME280;62056;52.130;5.428;2022-09-03T10:39:39;101318.50;;;23.76;38.04
73748;BME280;62056;52.130;5.428;2022-09-03T10:45:18;101322.66;;;23.93;36.96
73748;BME280;62056;52.130;5.428;2022-09-03T10:48:03;101315.41;;;24.00;38.13
73748;BME280;62056;52.130;5.428;2022-09-03T10:53:28;101318.72;;;24.17;37.62
73748;BME280;62056;52.130;5.428;2022-09-03T10:56:01;101306.75;;;24.21;37.61
73748;BME280;62056;52.130;5.428;2022-09-03T11:02:04;101303.47;;;24.39;37.44
73748;BME280;62056;52.130;5.428;2022-09-03T11:04:58;101312.88;;;24.45;36.09
73748;BME280;62056;52.130;5.428;2022-09-03T11:07:35;101312.59;;;24.50;35.29
73748;BME280;62056;52.130;5.428;2022-09-03T11:10:13;101310.34;;;24.59;36.80
73748;BME280;62056;52.130;5.428;2022-09-03T11:15:33;101307.03;;;24.73;36.46
73748;BME280;62056;52.130;5.428;2022-09-03T11:18:13;101304.78;;;24.82;35.89
73748;BME280;62056;52.130;5.428;2022-09-03T11:20:42;101304.06;;;24.89;36.12
73748;BME280;62056;52.130;5.428;2022-09-03T11:23:10;101313.09;;;24.97;35.67
73748;BME280;62056;52.130;5.428;2022-09-03T11:25:46;101308.84;;;24.99;35.93
73748;BME280;62056;52.130;5.428;2022-09-03T11:28:49;101300.75;;;25.07;33.58
73748;BME280;62056;52.130;5.428;2022-09-03T11:33:59;101291.50;;;25.15;34.81
73748;BME280;62056;52.130;5.428;2022-09-03T11:36:33;101295.88;;;25.23;35.67
73748;BME280;62056;52.130;5.428;2022-09-03T11:42:01;101290.19;;;25.39;35.31
73748;BME280;62056;52.130;5.428;2022-09-03T11:44:41;101287.94;;;25.48;33.71
73748;BME280;62056;52.130;5.428;2022-09-03T11:47:37;101288.38;;;25.57;35.00
73748;BME280;62056;52.130;5.428;2022-09-03T11:50:24;101292.28;;;25.60;33.78
73748;BME280;62056;52.130;5.428;2022-09-03T11:53:10;101288.41;;;25.61;34.28
73748;BME280;62056;52.130;5.428;2022-09-03T11:55:54;101280.66;;;25.63;34.01
73748;BME280;62056;52.130;5.428;2022-09-03T11:58:29;101284.56;;;25.69;34.72
73748;BME280;62056;52.130;5.428;2022-09-03T12:01:01;101283.84;;;25.76;34.59
73748;BME280;62056;52.130;5.428;2022-09-03T12:06:26;101287.84;;;25.93;32.18
73748;BME280;62056;52.130;5.428;2022-09-03T12:09:27;101278.53;;;25.97;33.84
73748;BME280;62056;52.130;5.428;2022-09-03T12:15:05;101282.09;;;26.09;33.55
73748;BME280;62056;52.130;5.428;2022-09-03T12:17:57;101288.75;;;26.15;31.69
73748;BME280;62056;52.130;5.428;2022-09-03T12:20:44;101289.56;;;26.19;32.16
73748;BME280;62056;52.130;5.428;2022-09-03T12:23:12;101287.63;;;26.23;33.67
73748;BME280;62056;52.130;5.428;2022-09-03T12:25:43;101287.25;;;26.28;33.51
73748;BME280;62056;52.130;5.428;2022-09-03T12:28:16;101293.50;;;26.32;33.16
73748;BME280;62056;52.130;5.428;2022-09-03T12:30:46;101291.94;;;26.35;33.35
73748;BME280;62056;52.130;5.428;2022-09-03T12:33:16;101281.84;;;26.39;33.49
73748;BME280;62056;52.130;5.428;2022-09-03T12:35:54;101292.78;;;26.46;32.52
73748;BME280;62056;52.130;5.428;2022-09-03T12:38:27;101287.31;;;26.50;31.97
73748;BME280;62056;52.130;5.428;2022-09-03T12:40:55;101293.56;;;26.54;33.14
73748;BME280;62056;52.130;5.428;2022-09-03T12:43:50;101297.09;;;26.54;30.56
73748;BME280;62056;52.130;5.428;2022-09-03T12:46:17;101299.06;;;26.57;32.37
73748;BME280;62056;52.130;5.428;2022-09-03T12:48:58;101297.13;;;26.61;32.35
73748;BME280;62056;52.130;5.428;2022-09-03T12:51:49;101294.03;;;26.63;32.11
73748;BME280;62056;52.130;5.428;2022-09-03T12:54:23;101284.69;;;26.68;32.57
73748;BME280;62056;52.130;5.428;2022-09-03T12:56:57;101289.75;;;26.69;31.70
73748;BME280;62056;52.130;5.428;2022-09-03T12:59:32;101285.06;;;26.70;30.29
73748;BME280;62056;52.130;5.428;2022-09-03T13:02:05;101283.94;;;26.78;31.86
73748;BME280;62056;52.130;5.428;2022-09-03T13:04:39;101282.75;;;26.82;32.45
73748;BME280;62056;52.130;5.428;2022-09-03T13:07:23;101288.25;;;26.90;30.95
73748;BME280;62056;52.130;5.428;2022-09-03T13:09:57;101283.94;;;26.96;31.93
73748;BME280;62056;52.130;5.428;2022-09-03T13:12:32;101282.78;;;26.97;31.24
73748;BME280;62056;52.130;5.428;2022-09-03T13:15:08;101288.63;;;26.99;30.85
73748;BME280;62056;52.130;5.428;2022-09-03T13:17:56;101283.19;;;27.02;30.86
73748;BME280;62056;52.130;5.428;2022-09-03T13:20:35;101287.84;;;27.05;31.53
73748;BME280;62056;52.130;5.428;2022-09-03T13:23:30;101287.09;;;27.09;30.70
73748;BME280;62056;52.130;5.428;2022-09-03T13:26:26;101295.66;;;27.14;31.61
73748;BME280;62056;52.130;5.428;2022-09-03T13:29:18;101281.63;;;27.16;30.08
73748;BME280;62056;52.130;5.428;2022-09-03T13:31:52;101283.59;;;27.19;31.20
73748;BME280;62056;52.130;5.428;2022-09-03T13:34:30;101270.72;;;27.19;31.00
73748;BME280;62056;52.130;5.428;2022-09-03T13:37:24;101273.84;;;27.29;29.90
73748;BME280;62056;52.130;5.428;2022-09-03T13:39:58;101275.81;;;27.32;30.79
73748;BME280;62056;52.130;5.428;2022-09-03T13:42:35;101278.13;;;27.33;30.78
73748;BME280;62056;52.130;5.428;2022-09-03T13:45:25;101274.25;;;27.38;30.96
73748;BME280;62056;52.130;5.428;2022-09-03T13:48:01;101271.50;;;27.41;30.26
73748;BME280;62056;52.130;5.428;2022-09-03T13:51:10;101267.22;;;27.44;31.20
73748;BME280;62056;52.130;5.428;2022-09-03T13:53:50;101276.59;;;27.47;30.58
73748;BME280;62056;52.130;5.428;2022-09-03T13:56:56;101277.38;;;27.51;31.32
73748;BME280;62056;52.130;5.428;2022-09-03T13:59:33;101272.28;;;27.53;30.72
73748;BME280;62056;52.130;5.428;2022-09-03T14:05:30;101265.25;;;27.55;30.10
73748;BME280;62056;52.130;5.428;2022-09-03T14:08:08;101269.91;;;27.58;30.20
73748;BME280;62056;52.130;5.428;2022-09-03T14:16:43;101277.34;;;27.65;30.63
73748;BME280;62056;52.130;5.428;2022-09-03T14:19:20;101276.16;;;27.66;30.61
73748;BME280;62056;52.130;5.428;2022-09-03T14:21:59;101270.69;;;27.66;30.60
73748;BME280;62056;52.130;5.428;2022-09-03T14:27:02;101277.31;;;27.69;30.60
73748;BME280;62056;52.130;5.428;2022-09-03T14:29:34;101267.19;;;27.69;30.90
73748;BME280;62056;52.130;5.428;2022-09-03T14:32:31;101279.66;;;27.70;30.91
73748;BME280;62056;52.130;5.428;2022-09-03T14:35:48;101272.25;;;27.71;30.15
73748;BME280;62056;52.130;5.428;2022-09-03T14:38:43;101269.91;;;27.73;31.04